sensor_id;sensor_type;location;lat;lon;timestamp;pressure;altitude;pressure_sealevel;temperature;humidity
61109;BME280;46995;55.740;37.402;2023-04-19T00:00:25;100371.34;;;11.39;40.99
61109;BME280;46995;55.740;37.402;2023-04-19T00:02:50;100361.59;;;11.39;40.76
61109;BME280;46995;55.740;37.402;2023-04-19T00:05:16;100364.25;;;11.39;40.53
61109;BME280;46995;55.740;37.402;2023-04-19T00:07:42;100373.97;;;11.39;40.63
61109;BME280;46995;55.740;37.402;2023-04-19T00:10:08;100367.94;;;11.37;40.42
61109;BME280;46995;55.740;37.402;2023-04-19T00:12:34;100371.53;;;11.36;40.65
61109;BME280;46995;55.740;37.402;2023-04-19T00:14:59;100368.31;;;11.32;40.71
61109;BME280;46995;55.740;37.402;2023-04-19T00:17:25;100368.41;;;11.31;40.71
61109;BME280;46995;55.740;37.402;2023-04-19T00:19:51;100375.38;;;11.32;40.70
61109;BME280;46995;55.740;37.402;2023-04-19T00:22:17;100371.78;;;11.33;40.66
61109;BME280;46995;55.740;37.402;2023-04-19T00:24:42;100371.78;;;11.33;40.62
61109;BME280;46995;55.740;37.402;2023-04-19T00:27:08;100374.19;;;11.36;40.37
61109;BME280;46995;55.740;37.402;2023-04-19T00:29:33;100375.19;;;11.35;40.51
61109;BME280;46995;55.740;37.402;2023-04-19T00:31:59;100374.09;;;11.37;40.54
61109;BME280;46995;55.740;37.402;2023-04-19T00:34:24;100377.47;;;11.39;40.61
61109;BME280;46995;55.740;37.402;2023-04-19T00:36:54;100385.25;;;11.41;40.44
61109;BME280;46995;55.740;37.402;2023-04-19T00:39:20;100380.97;;;11.40;40.70
61109;BME280;46995;55.740;37.402;2023-04-19T00:41:46;100374.09;;;11.37;40.46
61109;BME280;46995;55.740;37.402;2023-04-19T00:44:11;100382.03;;;11.37;40.41
61109;BME280;46995;55.740;37.402;2023-04-19T00:46:37;100376.84;;;11.36;40.73
61109;BME280;46995;55.740;37.402;2023-04-19T00:49:03;100378.66;;;11.35;40.68
61109;BME280;46995;55.740;37.402;2023-04-19T00:51:28;100377.94;;;11.33;40.74
61109;BME280;46995;55.740;37.402;2023-04-19T00:53:54;100379.72;;;11.33;40.52
61109;BME280;46995;55.740;37.402;2023-04-19T00:56:20;100382.63;;;11.30;40.60
61109;BME280;46995;55.740;37.402;2023-04-19T00:58:47;100382.84;;;11.27;40.64
61109;BME280;46995;55.740;37.402;2023-04-19T01:01:13;100382.13;;;11.25;40.57
61109;BME280;46995;55.740;37.402;2023-04-19T01:03:39;100381.38;;;11.23;40.59
61109;BME280;46995;55.740;37.402;2023-04-19T01:06:05;100389.41;;;11.21;40.87
61109;BME280;46995;55.740;37.402;2023-04-19T01:08:31;100381.63;;;11.20;40.83
61109;BME280;46995;55.740;37.402;2023-04-19T01:10:56;100385.22;;;11.19;40.57
61109;BME280;46995;55.740;37.402;2023-04-19T01:13:22;100385.31;;;11.17;40.74
61109;BME280;46995;55.740;37.402;2023-04-19T01:15:48;100384.59;;;11.15;40.80
61109;BME280;46995;55.740;37.402;2023-04-19T01:18:13;100393.72;;;11.11;40.78
61109;BME280;46995;55.740;37.402;2023-04-19T01:20:39;100395.66;;;11.09;41.08
61109;BME280;46995;55.740;37.402;2023-04-19T01:23:05;100384.22;;;11.09;41.00
61109;BME280;46995;55.740;37.402;2023-04-19T01:25:30;100392.38;;;11.05;40.77
61109;BME280;46995;55.740;37.402;2023-04-19T01:27:58;100395.00;;;11.05;41.09
61109;BME280;46995;55.740;37.402;2023-04-19T01:30:23;100392.50;;;11.04;41.13
61109;BME280;46995;55.740;37.402;2023-04-19T01:32:49;100389.13;;;11.02;41.20
61109;BME280;46995;55.740;37.402;2023-04-19T01:35:15;100391.88;;;11.00;41.15
61109;BME280;46995;55.740;37.402;2023-04-19T01:37:40;100397.16;;;11.00;40.98
61109;BME280;46995;55.740;37.402;2023-04-19T01:40:08;100384.28;;;10.96;41.11
61109;BME280;46995;55.740;37.402;2023-04-19T01:42:35;100387.88;;;10.95;41.09
61109;BME280;46995;55.740;37.402;2023-04-19T01:45:00;100381.03;;;10.92;41.38
61109;BME280;46995;55.740;37.402;2023-04-19T01:47:26;100389.91;;;10.91;41.11
61109;BME280;46995;55.740;37.402;2023-04-19T01:49:51;100386.66;;;10.88;41.00
61109;BME280;46995;55.740;37.402;2023-04-19T01:52:17;100380.72;;;10.84;41.17
61109;BME280;46995;55.740;37.402;2023-04-19T01:54:43;100386.38;;;10.80;41.04
61109;BME280;46995;55.740;37.402;2023-04-19T01:57:08;100384.06;;;10.75;41.21
61109;BME280;46995;55.740;37.402;2023-04-19T01:59:34;100390.53;;;10.71;41.17
61109;BME280;46995;55.740;37.402;2023-04-19T02:01:59;100383.78;;;10.67;40.88
61109;BME280;46995;55.740;37.402;2023-04-19T02:04:25;100377.88;;;10.63;41.10
61109;BME280;46995;55.740;37.402;2023-04-19T02:06:51;100384.22;;;10.61;41.40
61109;BME280;46995;55.740;37.402;2023-04-19T02:09:16;100380.84;;;10.59;41.14
61109;BME280;46995;55.740;37.402;2023-04-19T02:11:44;100387.06;;;10.58;41.43
61109;BME280;46995;55.740;37.402;2023-04-19T02:14:10;100383.59;;;10.57;41.41
61109;BME280;46995;55.740;37.402;2023-04-19T02:16:36;100384.78;;;10.53;41.39
61109;BME280;46995;55.740;37.402;2023-04-19T02:19:01;100378.03;;;10.49;41.56
61109;BME280;46995;55.740;37.402;2023-04-19T02:21:27;100376.25;;;10.50;41.43
61109;BME280;46995;55.740;37.402;2023-04-19T02:23:53;100373.59;;;10.50;41.53
61109;BME280;46995;55.740;37.402;2023-04-19T02:26:19;100388.50;;;10.51;41.11
61109;BME280;46995;55.740;37.402;2023-04-19T02:28:44;100384.91;;;10.52;41.42
61109;BME280;46995;55.740;37.402;2023-04-19T02:31:11;100390.81;;;10.55;41.34
61109;BME280;46995;55.740;37.402;2023-04-19T02:33:36;100388.06;;;10.57;41.53
61109;BME280;46995;55.740;37.402;2023-04-19T02:36:02;100391.66;;;10.56;41.34
61109;BME280;46995;55.740;37.402;2023-04-19T02:38:28;100391.84;;;10.53;40.93
61109;BME280;46995;55.740;37.402;2023-04-19T02:40:53;100396.41;;;10.51;41.31
61109;BME280;46995;55.740;37.402;2023-04-19T02:43:19;100397.38;;;10.50;41.28
61109;BME280;46995;55.740;37.402;2023-04-19T02:45:44;100391.25;;;10.49;41.37
61109;BME280;46995;55.740;37.402;2023-04-19T02:48:11;100392.94;;;10.50;41.61
61109;BME280;46995;55.740;37.402;2023-04-19T02:50:37;100401.56;;;10.52;41.57
61109;BME280;46995;55.740;37.402;2023-04-19T02:53:06;100400.75;;;10.52;41.67
61109;BME280;46995;55.740;37.402;2023-04-19T02:55:32;100398.94;;;10.52;41.94
61109;BME280;46995;55.740;37.402;2023-04-19T02:58:08;100397.03;;;10.54;41.75
61109;BME280;46995;55.740;37.402;2023-04-19T03:00:40;100403.06;;;10.56;41.72
61109;BME280;46995;55.740;37.402;2023-04-19T03:03:09;100398.38;;;10.60;41.86
61109;BME280;46995;55.740;37.402;2023-04-19T03:05:35;100401.78;;;10.62;41.90
61109;BME280;46995;55.740;37.402;2023-04-19T03:08:01;100410.41;;;10.64;41.80
61109;BME280;46995;55.740;37.402;2023-04-19T03:10:27;100401.44;;;10.67;41.66
61109;BME280;46995;55.740;37.402;2023-04-19T03:12:53;100393.38;;;10.68;41.96
61109;BME280;46995;55.740;37.402;2023-04-19T03:15:19;100404.69;;;10.70;42.05
61109;BME280;46995;55.740;37.402;2023-04-19T03:17:45;100405.31;;;10.74;42.07
61109;BME280;46995;55.740;37.402;2023-04-19T03:20:11;100405.94;;;10.77;42.24
61109;BME280;46995;55.740;37.402;2023-04-19T03:22:37;100408.44;;;10.79;41.94
61109;BME280;46995;55.740;37.402;2023-04-19T03:25:03;100406.56;;;10.81;41.90
61109;BME280;46995;55.740;37.402;2023-04-19T03:27:29;100406.56;;;10.81;41.96
61109;BME280;46995;55.740;37.402;2023-04-19T03:29:59;100403.91;;;10.81;41.72
61109;BME280;46995;55.740;37.402;2023-04-19T03:32:30;100405.50;;;10.83;41.73
61109;BME280;46995;55.740;37.402;2023-04-19T03:34:56;100403.38;;;10.88;41.78
61109;BME280;46995;55.740;37.402;2023-04-19T03:37:22;100400.59;;;10.90;41.87
61109;BME280;46995;55.740;37.402;2023-04-19T03:39:48;100400.38;;;10.93;41.86
61109;BME280;46995;55.740;37.402;2023-04-19T03:42:19;100407.00;;;10.98;41.88
61109;BME280;46995;55.740;37.402;2023-04-19T03:45:11;100410.88;;;11.05;41.83
61109;BME280;46995;55.740;37.402;2023-04-19T03:47:42;100415.69;;;11.12;41.82
61109;BME280;46995;55.740;37.402;2023-04-19T03:50:08;100410.81;;;11.18;41.67
61109;BME280;46995;55.740;37.402;2023-04-19T03:52:36;100407.09;;;11.21;41.40
61109;BME280;46995;55.740;37.402;2023-04-19T03:55:05;100412.16;;;11.24;41.48
61109;BME280;46995;55.740;37.402;2023-04-19T03:57:37;100411.06;;;11.26;41.36
61109;BME280;46995;55.740;37.402;2023-04-19T04:00:11;100409.78;;;11.32;41.35
61109;BME280;46995;55.740;37.402;2023-04-19T04:02:43;100408.47;;;11.37;41.41
61109;BME280;46995;55.740;37.402;2023-04-19T04:05:11;100410.06;;;11.40;41.44
61109;BME280;46995;55.740;37.402;2023-04-19T04:07:36;100409.22;;;11.39;41.29
61109;BME280;46995;55.740;37.402;2023-04-19T04:10:02;100409.91;;;11.41;41.32
61109;BME280;46995;55.740;37.402;2023-04-19T04:12:33;100409.59;;;11.46;41.11
61109;BME280;46995;55.740;37.402;2023-04-19T04:15:03;100408.13;;;11.42;41.21
61109;BME280;46995;55.740;37.402;2023-04-19T04:17:30;100410.06;;;11.40;41.28
61109;BME280;46995;55.740;37.402;2023-04-19T04:19:56;100407.28;;;11.41;41.20
61109;BME280;46995;55.740;37.402;2023-04-19T04:22:25;100411.41;;;11.45;40.96
61109;BME280;46995;55.740;37.402;2023-04-19T04:24:51;100411.16;;;11.48;41.19
61109;BME280;46995;55.740;37.402;2023-04-19T04:27:22;100412.50;;;11.54;41.21
61109;BME280;46995;55.740;37.402;2023-04-19T04:29:51;100413.94;;;11.58;41.05
61109;BME280;46995;55.740;37.402;2023-04-19T04:32:17;100414.66;;;11.60;40.97
61109;BME280;46995;55.740;37.402;2023-04-19T04:34:47;100412.88;;;11.61;40.96
61109;BME280;46995;55.740;37.402;2023-04-19T04:37:23;100414.56;;;11.62;40.97
61109;BME280;46995;55.740;37.402;2023-04-19T04:39:50;100410.09;;;11.62;41.00
61109;BME280;46995;55.740;37.402;2023-04-19T04:42:16;100417.91;;;11.64;41.24
61109;BME280;46995;55.740;37.402;2023-04-19T04:44:42;100418.50;;;11.67;41.07
61109;BME280;46995;55.740;37.402;2023-04-19T04:47:11;100420.00;;;11.71;40.89
61109;BME280;46995;55.740;37.402;2023-04-19T04:49:47;100421.66;;;11.72;40.79
61109;BME280;46995;55.740;37.402;2023-04-19T04:55:23;100428.31;;;11.78;40.91
61109;BME280;46995;55.740;37.402;2023-04-19T04:57:48;100432.19;;;11.85;40.45
61109;BME280;46995;55.740;37.402;2023-04-19T05:00:27;100433.50;;;11.91;40.48
61109;BME280;46995;55.740;37.402;2023-04-19T05:03:00;100443.53;;;11.98;40.63
61109;BME280;46995;55.740;37.402;2023-04-19T05:05:32;100437.72;;;12.04;40.46
61109;BME280;46995;55.740;37.402;2023-04-19T05:07:57;100440.28;;;12.06;40.65
61109;BME280;46995;55.740;37.402;2023-04-19T05:10:29;100442.56;;;12.10;40.31
61109;BME280;46995;55.740;37.402;2023-04-19T05:12:56;100437.88;;;12.14;40.34
61109;BME280;46995;55.740;37.402;2023-04-19T05:15:22;100440.53;;;12.14;40.48
61109;BME280;46995;55.740;37.402;2023-04-19T05:17:51;100446.53;;;12.16;40.23
61109;BME280;46995;55.740;37.402;2023-04-19T05:20:17;100442.19;;;12.15;40.32
61109;BME280;46995;55.740;37.402;2023-04-19T05:22:45;100439.31;;;12.18;40.47
61109;BME280;46995;55.740;37.402;2023-04-19T05:25:11;100441.25;;;12.27;40.44
61109;BME280;46995;55.740;37.402;2023-04-19T05:27:38;100445.59;;;12.39;40.14
61109;BME280;46995;55.740;37.402;2023-04-19T05:30:04;100447.38;;;12.50;40.26
61109;BME280;46995;55.740;37.402;2023-04-19T05:32:32;100448.44;;;12.58;39.96
61109;BME280;46995;55.740;37.402;2023-04-19T05:35:00;100455.78;;;12.66;39.80
61109;BME280;46995;55.740;37.402;2023-04-19T05:37:28;100443.72;;;12.73;39.82
61109;BME280;46995;55.740;37.402;2023-04-19T05:39:55;100444.91;;;12.80;39.86
61109;BME280;46995;55.740;37.402;2023-04-19T05:42:23;100445.28;;;12.87;39.65
61109;BME280;46995;55.740;37.402;2023-04-19T05:44:49;100454.41;;;12.94;39.51
61109;BME280;46995;55.740;37.402;2023-04-19T05:47:15;100454.16;;;12.97;39.59
61109;BME280;46995;55.740;37.402;2023-04-19T05:50:06;100451.63;;;12.95;39.46
61109;BME280;46995;55.740;37.402;2023-04-19T05:52:39;100457.03;;;12.94;39.65
61109;BME280;46995;55.740;37.402;2023-04-19T05:55:05;100458.75;;;12.95;39.59
61109;BME280;46995;55.740;37.402;2023-04-19T05:57:33;100465.09;;;13.03;39.32
61109;BME280;46995;55.740;37.402;2023-04-19T05:59:59;100467.41;;;13.08;39.38
61109;BME280;46995;55.740;37.402;2023-04-19T06:02:38;100465.25;;;13.13;39.46
61109;BME280;46995;55.740;37.402;2023-04-19T06:05:04;100457.75;;;13.18;39.31
61109;BME280;46995;55.740;37.402;2023-04-19T06:07:30;100452.91;;;13.23;39.17
61109;BME280;46995;55.740;37.402;2023-04-19T06:09:56;100458.41;;;13.31;39.30
61109;BME280;46995;55.740;37.402;2023-04-19T06:12:21;100456.78;;;13.40;38.96
61109;BME280;46995;55.740;37.402;2023-04-19T06:14:47;100466.06;;;13.45;39.00
61109;BME280;46995;55.740;37.402;2023-04-19T06:17:13;100456.06;;;13.49;38.81
61109;BME280;46995;55.740;37.402;2023-04-19T06:19:41;100456.50;;;13.54;38.64
61109;BME280;46995;55.740;37.402;2023-04-19T06:22:07;100464.09;;;13.58;38.75
61109;BME280;46995;55.740;37.402;2023-04-19T06:24:32;100460.91;;;13.65;38.83
61109;BME280;46995;55.740;37.402;2023-04-19T06:26:58;100464.03;;;13.70;38.77
61109;BME280;46995;55.740;37.402;2023-04-19T06:29:23;100457.59;;;13.72;38.40
61109;BME280;46995;55.740;37.402;2023-04-19T06:31:50;100464.38;;;13.76;38.37
61109;BME280;46995;55.740;37.402;2023-04-19T06:34:18;100459.63;;;13.80;38.11
61109;BME280;46995;55.740;37.402;2023-04-19T06:36:43;100462.16;;;13.81;37.88
61109;BME280;46995;55.740;37.402;2023-04-19T06:39:09;100465.78;;;13.80;38.26
61109;BME280;46995;55.740;37.402;2023-04-19T06:41:35;100457.09;;;13.78;38.25
61109;BME280;46995;55.740;37.402;2023-04-19T06:44:01;100464.09;;;13.79;37.74
61109;BME280;46995;55.740;37.402;2023-04-19T06:46:27;100459.34;;;13.83;37.97
61109;BME280;46995;55.740;37.402;2023-04-19T06:48:53;100465.25;;;13.86;38.08
61109;BME280;46995;55.740;37.402;2023-04-19T06:51:21;100463.19;;;13.90;37.76
61109;BME280;46995;55.740;37.402;2023-04-19T06:53:48;100472.56;;;13.94;37.87
61109;BME280;46995;55.740;37.402;2023-04-19T06:56:14;100466.47;;;14.03;37.59
61109;BME280;46995;55.740;37.402;2023-04-19T06:58:40;100470.00;;;14.13;37.58
61109;BME280;46995;55.740;37.402;2023-04-19T07:01:09;100465.63;;;14.23;37.66
61109;BME280;46995;55.740;37.402;2023-04-19T07:03:34;100456.97;;;14.31;37.65
61109;BME280;46995;55.740;37.402;2023-04-19T07:06:00;100464.53;;;14.35;37.34
61109;BME280;46995;55.740;37.402;2023-04-19T07:08:26;100460.19;;;14.34;37.44
61109;BME280;46995;55.740;37.402;2023-04-19T07:10:51;100460.34;;;14.33;37.37
61109;BME280;46995;55.740;37.402;2023-04-19T07:13:18;100453.22;;;14.33;37.27
61109;BME280;46995;55.740;37.402;2023-04-19T07:15:44;100457.41;;;14.36;37.38
61109;BME280;46995;55.740;37.402;2023-04-19T07:18:09;100450.31;;;14.36;37.10
61109;BME280;46995;55.740;37.402;2023-04-19T07:20:35;100451.72;;;14.40;36.94
61109;BME280;46995;55.740;37.402;2023-04-19T07:23:01;100451.19;;;14.47;36.73
61109;BME280;46995;55.740;37.402;2023-04-19T07:25:26;100455.25;;;14.51;36.89
61109;BME280;46995;55.740;37.402;2023-04-19T07:27:52;100446.75;;;14.57;36.87
61109;BME280;46995;55.740;37.402;2023-04-19T07:30:19;100451.41;;;14.64;36.56
61109;BME280;46995;55.740;37.402;2023-04-19T07:32:44;100451.97;;;14.68;36.13
61109;BME280;46995;55.740;37.402;2023-04-19T07:35:10;100449.72;;;14.73;36.54
61109;BME280;46995;55.740;37.402;2023-04-19T07:37:36;100454.50;;;14.79;36.31
61109;BME280;46995;55.740;37.402;2023-04-19T07:40:03;100448.66;;;14.85;35.76
61109;BME280;46995;55.740;37.402;2023-04-19T07:42:29;100456.78;;;14.93;35.58
61109;BME280;46995;55.740;37.402;2023-04-19T07:44:55;100455.94;;;15.02;35.95
61109;BME280;46995;55.740;37.402;2023-04-19T07:47:21;100461.69;;;15.07;35.60
61109;BME280;46995;55.740;37.402;2023-04-19T07:49:50;100451.50;;;15.12;35.97
61109;BME280;46995;55.740;37.402;2023-04-19T07:52:15;100457.25;;;15.17;35.66
61109;BME280;46995;55.740;37.402;2023-04-19T07:54:42;100455.81;;;15.23;35.08
61109;BME280;46995;55.740;37.402;2023-04-19T07:57:08;100452.47;;;15.31;35.50
61109;BME280;46995;55.740;37.402;2023-04-19T07:59:33;100452.91;;;15.36;35.31
61109;BME280;46995;55.740;37.402;2023-04-19T08:01:59;100457.94;;;15.39;34.69
61109;BME280;46995;55.740;37.402;2023-04-19T08:04:25;100458.50;;;15.42;33.79
61109;BME280;46995;55.740;37.402;2023-04-19T08:06:50;100452.22;;;15.53;33.64
61109;BME280;46995;55.740;37.402;2023-04-19T08:09:17;100463.59;;;15.64;34.31
61109;BME280;46995;55.740;37.402;2023-04-19T08:11:42;100450.69;;;15.70;33.90
61109;BME280;46995;55.740;37.402;2023-04-19T08:14:08;100455.72;;;15.73;33.81
61109;BME280;46995;55.740;37.402;2023-04-19T08:16:34;100450.69;;;15.70;32.79
61109;BME280;46995;55.740;37.402;2023-04-19T08:18:59;100441.41;;;15.74;34.00
61109;BME280;46995;55.740;37.402;2023-04-19T08:21:25;100441.97;;;15.77;34.18
61109;BME280;46995;55.740;37.402;2023-04-19T08:23:51;100456.53;;;15.83;34.01
61109;BME280;46995;55.740;37.402;2023-04-19T08:26:16;100456.94;;;15.88;33.89
61109;BME280;46995;55.740;37.402;2023-04-19T08:28:42;100456.41;;;15.84;33.34
61109;BME280;46995;55.740;37.402;2023-04-19T08:31:09;100445.16;;;15.81;33.09
61109;BME280;46995;55.740;37.402;2023-04-19T08:33:35;100450.34;;;15.82;33.70
61109;BME280;46995;55.740;37.402;2023-04-19T08:36:01;100454.16;;;15.89;33.40
61109;BME280;46995;55.740;37.402;2023-04-19T08:38:27;100449.22;;;15.94;32.86
61109;BME280;46995;55.740;37.402;2023-04-19T08:40:52;100460.56;;;15.96;33.56
61109;BME280;46995;55.740;37.402;2023-04-19T08:43:19;100442.22;;;15.93;33.05
61109;BME280;46995;55.740;37.402;2023-04-19T08:45:46;100445.59;;;15.95;32.84
61109;BME280;46995;55.740;37.402;2023-04-19T08:48:12;100443.31;;;16.00;33.09
61109;BME280;46995;55.740;37.402;2023-04-19T08:50:42;100442.75;;;16.06;33.21
61109;BME280;46995;55.740;37.402;2023-04-19T08:53:10;100445.09;;;16.09;32.76
61109;BME280;46995;55.740;37.402;2023-04-19T08:55:36;100443.81;;;16.14;33.04
61109;BME280;46995;55.740;37.402;2023-04-19T08:58:03;100447.88;;;16.18;32.82
61109;BME280;46995;55.740;37.402;2023-04-19T09:00:30;100439.06;;;16.17;32.65
61109;BME280;46995;55.740;37.402;2023-04-19T09:02:56;100437.22;;;16.18;32.94
61109;BME280;46995;55.740;37.402;2023-04-19T09:05:23;100434.28;;;16.21;32.42
61109;BME280;46995;55.740;37.402;2023-04-19T09:07:48;100437.78;;;16.21;32.44
61109;BME280;46995;55.740;37.402;2023-04-19T09:10:15;100428.81;;;16.22;32.59
61109;BME280;46995;55.740;37.402;2023-04-19T09:12:41;100424.69;;;16.28;31.43
61109;BME280;46995;55.740;37.402;2023-04-19T09:15:07;100425.78;;;16.35;32.80
61109;BME280;46995;55.740;37.402;2023-04-19T09:17:37;100421.84;;;16.39;32.37
61109;BME280;46995;55.740;37.402;2023-04-19T09:20:03;100425.59;;;16.46;32.86
61109;BME280;46995;55.740;37.402;2023-04-19T09:22:30;100422.94;;;16.46;32.05
61109;BME280;46995;55.740;37.402;2023-04-19T09:24:56;100418.44;;;16.46;32.29
61109;BME280;46995;55.740;37.402;2023-04-19T09:27:33;100405.41;;;16.43;32.15
61109;BME280;46995;55.740;37.402;2023-04-19T09:29:59;100415.91;;;16.45;31.93
61109;BME280;46995;55.740;37.402;2023-04-19T09:32:26;100415.91;;;16.45;32.68
61109;BME280;46995;55.740;37.402;2023-04-19T09:34:52;100415.25;;;16.43;32.67
61109;BME280;46995;55.740;37.402;2023-04-19T09:37:18;100402.19;;;16.40;31.65
61109;BME280;46995;55.740;37.402;2023-04-19T09:39:45;100409.22;;;16.41;32.56
61109;BME280;46995;55.740;37.402;2023-04-19T09:42:12;100394.91;;;16.42;31.79
61109;BME280;46995;55.740;37.402;2023-04-19T09:44:37;100399.78;;;16.46;32.56
61109;BME280;46995;55.740;37.402;2023-04-19T09:47:20;100408.75;;;16.45;32.02
61109;BME280;46995;55.740;37.402;2023-04-19T09:49:45;100406.94;;;16.46;32.20
61109;BME280;46995;55.740;37.402;2023-04-19T09:52:12;100404.28;;;16.46;32.00
61109;BME280;46995;55.740;37.402;2023-04-19T09:54:38;100403.28;;;16.47;32.04
61109;BME280;46995;55.740;37.402;2023-04-19T09:57:04;100395.97;;;16.49;31.50
61109;BME280;46995;55.740;37.402;2023-04-19T09:59:30;100398.22;;;16.53;31.48
61109;BME280;46995;55.740;37.402;2023-04-19T10:01:55;100397.06;;;16.56;32.31
61109;BME280;46995;55.740;37.402;2023-04-19T10:04:21;100405.38;;;16.53;32.36
61109;BME280;46995;55.740;37.402;2023-04-19T10:06:53;100413.13;;;16.46;32.11
61109;BME280;46995;55.740;37.402;2023-04-19T10:09:21;100391.91;;;16.45;31.62
61109;BME280;46995;55.740;37.402;2023-04-19T10:11:51;100397.66;;;16.50;31.55
61109;BME280;46995;55.740;37.402;2023-04-19T10:14:23;100390.03;;;16.55;31.86
61109;BME280;46995;55.740;37.402;2023-04-19T10:16:49;100388.50;;;16.62;31.58
61109;BME280;46995;55.740;37.402;2023-04-19T10:19:16;100391.16;;;16.62;31.25
61109;BME280;46995;55.740;37.402;2023-04-19T10:21:42;100391.56;;;16.67;31.16
61109;BME280;46995;55.740;37.402;2023-04-19T10:24:12;100387.97;;;16.76;31.49
61109;BME280;46995;55.740;37.402;2023-04-19T10:29:57;100381.13;;;16.91;31.34
61109;BME280;46995;55.740;37.402;2023-04-19T10:32:25;100380.00;;;16.94;31.68
61109;BME280;46995;55.740;37.402;2023-04-19T10:34:51;100382.53;;;16.96;30.83
61109;BME280;46995;55.740;37.402;2023-04-19T10:37:24;100386.94;;;17.05;31.31
61109;BME280;46995;55.740;37.402;2023-04-19T10:39:50;100380.44;;;17.07;30.42
61109;BME280;46995;55.740;37.402;2023-04-19T10:42:16;100379.00;;;17.13;30.91
61109;BME280;46995;55.740;37.402;2023-04-19T10:44:44;100374.59;;;17.04;31.09
61109;BME280;46995;55.740;37.402;2023-04-19T10:47:41;100374.91;;;17.01;30.93
61109;BME280;46995;55.740;37.402;2023-04-19T10:50:07;100375.28;;;17.06;30.95
61109;BME280;46995;55.740;37.402;2023-04-19T10:52:34;100371.69;;;17.15;31.37
61109;BME280;46995;55.740;37.402;2023-04-19T10:54:59;100370.75;;;17.24;31.40
61109;BME280;46995;55.740;37.402;2023-04-19T10:57:28;100364.66;;;17.31;31.41
61109;BME280;46995;55.740;37.402;2023-04-19T11:00:17;100365.03;;;17.36;31.68
61109;BME280;46995;55.740;37.402;2023-04-19T11:02:44;100367.22;;;17.41;31.20
61109;BME280;46995;55.740;37.402;2023-04-19T11:05:10;100361.03;;;17.41;31.22
61109;BME280;46995;55.740;37.402;2023-04-19T11:07:39;100359.06;;;17.43;30.50
61109;BME280;46995;55.740;37.402;2023-04-19T11:10:07;100355.84;;;17.39;31.53
61109;BME280;46995;55.740;37.402;2023-04-19T11:12:34;100353.50;;;17.36;31.07
61109;BME280;46995;55.740;37.402;2023-04-19T11:15:00;100351.69;;;17.36;31.10
61109;BME280;46995;55.740;37.402;2023-04-19T11:17:29;100356.19;;;17.36;31.19
61109;BME280;46995;55.740;37.402;2023-04-19T11:20:00;100355.19;;;17.37;30.98
61109;BME280;46995;55.740;37.402;2023-04-19T11:24:55;100343.59;;;17.54;30.59
61109;BME280;46995;55.740;37.402;2023-04-19T11:27:22;100350.88;;;17.62;31.13
61109;BME280;46995;55.740;37.402;2023-04-19T11:29:49;100338.38;;;17.62;30.53
61109;BME280;46995;55.740;37.402;2023-04-19T11:32:19;100336.06;;;17.67;31.20
61109;BME280;46995;55.740;37.402;2023-04-19T11:34:45;100339.56;;;17.68;30.70
61109;BME280;46995;55.740;37.402;2023-04-19T11:37:15;100338.94;;;17.74;30.67
61109;BME280;46995;55.740;37.402;2023-04-19T11:39:44;100337.97;;;17.83;30.45
61109;BME280;46995;55.740;37.402;2023-04-19T11:42:20;100341.84;;;17.89;30.49
61109;BME280;46995;55.740;37.402;2023-04-19T11:44:49;100345.88;;;17.93;31.01
61109;BME280;46995;55.740;37.402;2023-04-19T11:47:16;100335.88;;;17.95;31.47
61109;BME280;46995;55.740;37.402;2023-04-19T11:49:42;100329.50;;;17.96;31.23
61109;BME280;46995;55.740;37.402;2023-04-19T11:52:07;100334.84;;;17.96;30.64
61109;BME280;46995;55.740;37.402;2023-04-19T11:54:33;100332.19;;;17.96;30.75
61109;BME280;46995;55.740;37.402;2023-04-19T11:57:07;100320.66;;;17.95;31.10
61109;BME280;46995;55.740;37.402;2023-04-19T11:59:36;100332.00;;;17.89;30.85
61109;BME280;46995;55.740;37.402;2023-04-19T12:02:06;100327.59;;;17.80;30.28
61109;BME280;46995;55.740;37.402;2023-04-19T12:04:33;100327.56;;;17.72;30.17
61109;BME280;46995;55.740;37.402;2023-04-19T12:07:04;100329.28;;;17.81;30.68
61109;BME280;46995;55.740;37.402;2023-04-19T12:09:35;100327.16;;;17.93;30.18
61109;BME280;46995;55.740;37.402;2023-04-19T12:12:30;100323.22;;;18.47;29.45
61109;BME280;46995;55.740;37.402;2023-04-19T12:14:56;100321.00;;;20.04;28.20
61109;BME280;46995;55.740;37.402;2023-04-19T12:17:24;100316.09;;;22.05;26.82
61109;BME280;46995;55.740;37.402;2023-04-19T12:19:50;100306.50;;;23.93;25.05
61109;BME280;46995;55.740;37.402;2023-04-19T12:22:17;100311.91;;;25.41;23.91
61109;BME280;46995;55.740;37.402;2023-04-19T12:24:49;100307.28;;;26.83;22.85
61109;BME280;46995;55.740;37.402;2023-04-19T12:27:18;100302.03;;;28.06;21.95
61109;BME280;46995;55.740;37.402;2023-04-19T12:29:44;100298.69;;;28.88;22.06
61109;BME280;46995;55.740;37.402;2023-04-19T12:32:10;100300.38;;;28.71;22.05
61109;BME280;46995;55.740;37.402;2023-04-19T12:34:37;100295.16;;;27.85;22.75
61109;BME280;46995;55.740;37.402;2023-04-19T12:37:02;100298.16;;;27.34;22.83
61109;BME280;46995;55.740;37.402;2023-04-19T12:39:28;100292.25;;;27.19;22.91
61109;BME280;46995;55.740;37.402;2023-04-19T12:41:55;100294.78;;;27.14;22.27
61109;BME280;46995;55.740;37.402;2023-04-19T12:44:21;100297.31;;;26.77;23.05
61109;BME280;46995;55.740;37.402;2023-04-19T12:46:46;100294.69;;;26.20;23.57
61109;BME280;46995;55.740;37.402;2023-04-19T12:49:12;100285.25;;;25.71;23.65